Minneapolis, Minnesota
Traffic Map
Current Weather Conditions
Minneapolis, Minnesota
Overcast
Overcast
40°
Feels Like: 33°
Wind Chill: 33° Ceiling: 1500
Heat Index: 40° Visibility: 10mi
Dew Point: 33° Wind: 12mph
Humidity: 77% Direction: 40° (NE)
Pressure: 30.17in Gusts: 21mph
Raw Report DataKMSP 250253Z 04010G18KT 10SM OVC015 04/01 A3017 RMK AO2 SLP223 T00440006 50014
Traffic Incident Summary
Active as of:
Severity:
Category:
InformationThere was an issue retrieving the traffic information for this location. Please try a different location or try again shortly.
Advertisements
Track Severe Weather on mobile